createdAt,value
2022-12-18T00:00:35.031Z,46.40
2022-12-18T00:01:35.101Z,45.50
2022-12-18T00:02:35.029Z,44.20
2022-12-18T00:03:35.116Z,46.00
2022-12-18T00:04:34.822Z,47.30
2022-12-18T00:05:34.765Z,45.90
2022-12-18T00:06:34.736Z,46.90
2022-12-18T00:07:34.671Z,45.90
2022-12-18T00:08:34.608Z,46.20
2022-12-18T00:09:39.373Z,47.00
2022-12-18T00:10:34.495Z,46.20
2022-12-18T00:11:34.451Z,45.40
2022-12-18T00:12:34.388Z,43.90
2022-12-18T00:13:34.341Z,43.30
2022-12-18T00:14:34.283Z,45.50
2022-12-18T00:15:34.232Z,44.20
2022-12-18T00:16:34.231Z,44.00
2022-12-18T00:17:34.126Z,44.70
2022-12-18T00:18:34.072Z,43.80
2022-12-18T00:19:34.016Z,44.60
2022-12-18T00:20:33.961Z,43.50
2022-12-18T20:43:46.236Z,9.80
2022-12-18T20:44:46.070Z,13.30
2022-12-18T20:45:46.065Z,16.30
2022-12-18T20:46:45.956Z,16.40
2022-12-18T20:47:45.899Z,16.80
2022-12-18T20:48:45.847Z,17.90
2022-12-18T20:49:45.851Z,17.40
2022-12-18T20:50:45.742Z,26.40
2022-12-18T20:51:45.691Z,22.70
2022-12-18T20:52:45.639Z,16.50
2022-12-18T20:53:45.865Z,18.00
2022-12-18T20:54:45.535Z,17.50
2022-12-18T20:55:45.484Z,19.20
2022-12-18T20:56:45.434Z,16.70
2022-12-18T20:57:45.381Z,17.70
2022-12-18T20:58:45.334Z,22.60
2022-12-18T20:59:48.291Z,16.00
2022-12-18T21:00:45.231Z,17.00
2022-12-18T21:01:48.938Z,16.40
2022-12-18T21:02:45.319Z,16.80
2022-12-18T21:03:45.132Z,16.40
2022-12-18T21:04:45.032Z,15.60
2022-12-18T21:05:44.980Z,20.50
2022-12-18T21:06:49.618Z,17.40
2022-12-18T21:07:44.881Z,16.40
2022-12-18T21:08:44.834Z,17.10
2022-12-18T21:09:44.783Z,17.10
2022-12-18T21:10:44.740Z,20.00
2022-12-18T21:11:44.682Z,18.60
2022-12-18T21:13:04.606Z,17.10
2022-12-18T21:13:44.583Z,16.20
2022-12-18T21:14:44.534Z,16.80
2022-12-18T21:15:44.600Z,15.70
2022-12-18T21:16:44.462Z,18.80
2022-12-18T21:17:45.381Z,17.10
2022-12-18T21:18:44.339Z,18.00
2022-12-18T21:19:44.290Z,15.90
2022-12-18T21:20:44.239Z,16.40
2022-12-18T21:21:44.188Z,17.20
2022-12-18T21:22:44.142Z,15.70
2022-12-18T21:23:44.094Z,16.00
2022-12-18T21:24:44.049Z,17.30
2022-12-18T21:25:43.991Z,17.00
2022-12-18T21:26:46.067Z,17.50
2022-12-18T21:27:43.895Z,17.20
2022-12-18T21:28:43.845Z,20.60
2022-12-18T21:29:43.798Z,16.70
2022-12-18T21:30:43.819Z,17.30
2022-12-18T21:31:43.816Z,17.30
2022-12-18T21:32:43.651Z,18.30
2022-12-18T21:33:43.603Z,16.90
2022-12-18T21:34:47.970Z,16.60
2022-12-18T21:35:43.502Z,17.20
2022-12-18T21:36:43.457Z,17.40
2022-12-18T21:37:43.403Z,17.90
2022-12-18T21:38:43.357Z,16.20
2022-12-18T21:39:43.310Z,16.40
2022-12-18T21:40:43.275Z,16.80
2022-12-18T21:41:43.209Z,16.10
2022-12-18T21:42:43.163Z,16.80
2022-12-18T21:43:43.111Z,16.00
2022-12-18T21:44:43.065Z,15.90
2022-12-18T21:45:43.052Z,15.70
2022-12-18T21:46:42.969Z,15.90
2022-12-18T21:47:43.028Z,17.20
2022-12-18T21:48:42.867Z,16.40
2022-12-18T21:49:42.817Z,17.00
2022-12-18T21:50:42.772Z,16.70
2022-12-18T21:51:42.724Z,16.20
2022-12-18T21:52:42.673Z,16.30
2022-12-18T21:53:42.620Z,16.30
2022-12-18T21:54:42.573Z,16.00
2022-12-18T21:55:42.525Z,15.80
2022-12-18T21:56:42.476Z,15.90
2022-12-18T21:57:42.426Z,16.00
2022-12-18T21:58:56.759Z,15.80
2022-12-18T21:59:42.349Z,15.80
2022-12-18T22:00:46.979Z,16.50
2022-12-18T22:01:42.402Z,16.40
2022-12-18T22:02:42.368Z,15.80
2022-12-18T22:03:42.413Z,16.40
2022-12-18T22:04:42.085Z,16.20
2022-12-18T22:05:42.034Z,15.70
2022-12-18T22:06:41.988Z,16.20
2022-12-18T22:07:41.937Z,15.30
2022-12-18T22:08:43.722Z,15.70
2022-12-18T22:09:41.842Z,15.70
2022-12-18T22:10:41.794Z,17.20
2022-12-18T22:11:41.750Z,17.40
2022-12-18T22:12:43.780Z,15.30
2022-12-18T22:13:41.646Z,15.40
2022-12-18T22:14:41.597Z,16.40
2022-12-18T22:15:41.621Z,15.60
2022-12-18T22:16:41.504Z,15.90
2022-12-18T22:17:41.447Z,16.50
2022-12-18T22:18:41.403Z,16.10
2022-12-18T22:19:43.217Z,15.30
2022-12-18T22:20:41.304Z,15.40
2022-12-18T22:21:41.253Z,16.20
2022-12-18T22:22:41.208Z,15.80
2022-12-18T22:23:41.155Z,16.30
2022-12-18T22:24:41.107Z,15.80
2022-12-18T22:25:41.057Z,15.90
2022-12-18T22:26:41.012Z,16.00
2022-12-18T22:27:40.967Z,15.40
2022-12-18T22:28:40.910Z,15.60
2022-12-18T22:29:40.858Z,17.10
2022-12-18T22:30:40.916Z,15.40
2022-12-18T22:31:40.803Z,17.80
2022-12-18T22:32:40.715Z,16.20
2022-12-18T22:33:40.668Z,16.40
2022-12-18T22:34:40.622Z,15.10
2022-12-18T22:35:40.682Z,16.00
2022-12-18T22:36:40.519Z,15.40
2022-12-18T22:37:40.471Z,16.20
2022-12-18T22:38:40.421Z,16.50
2022-12-18T22:39:40.377Z,15.30
2022-12-18T22:40:40.330Z,15.90
2022-12-18T22:41:40.270Z,16.00
2022-12-18T22:42:40.225Z,15.50
2022-12-18T22:43:40.180Z,15.70
2022-12-18T22:44:40.126Z,14.70
2022-12-18T22:45:40.077Z,16.00
2022-12-18T22:46:40.086Z,14.90
2022-12-18T22:47:39.978Z,16.10
2022-12-18T22:48:39.932Z,15.00
2022-12-18T22:49:39.879Z,15.90
2022-12-18T22:50:39.833Z,15.60
2022-12-18T22:51:39.898Z,18.70
2022-12-18T22:52:39.735Z,15.30
2022-12-18T22:53:39.687Z,15.10
2022-12-18T22:54:39.638Z,15.70
2022-12-18T22:55:39.589Z,14.80
2022-12-18T22:56:39.538Z,15.90
2022-12-18T22:57:39.488Z,16.10
2022-12-18T22:58:39.442Z,17.80
2022-12-18T22:59:39.391Z,15.10
2022-12-18T23:00:39.342Z,15.30
2022-12-18T23:01:39.393Z,15.80
2022-12-18T23:02:39.467Z,16.10
2022-12-18T23:03:39.261Z,17.10
2022-12-18T23:04:39.146Z,16.80
2022-12-18T23:05:39.099Z,16.20
2022-12-18T23:06:39.049Z,16.40
2022-12-18T23:07:39.113Z,15.10
2022-12-18T23:08:38.953Z,16.20
2022-12-18T23:09:38.901Z,15.90
2022-12-18T23:10:38.860Z,15.20
2022-12-18T23:11:38.830Z,16.20
2022-12-18T23:12:38.761Z,16.60
2022-12-18T23:13:38.751Z,15.80
2022-12-18T23:14:38.684Z,16.60
2022-12-18T23:15:38.655Z,16.10
2022-12-18T23:16:38.562Z,15.60
